Hovedside
METAR-TAF:

METAR-TAF

Lufthavner :

Åre Östersund lufthavn

Östersund-Frösön, Sverige

breddegrad: 63-11N, lengdegrad: 014-30E, høyde over havet: 376 m

Gjeldene værobservasjon

Denne rapporten ble laget for 35 minutter siden, klokken 04:20 UTC
Vind 6 kt fra Vest
Temperatur 4°C
Luftfuktighet 87%
Trykk 1015 hPa
Sikt 10 km eller mer
ingen skyer under 1500 m og ingen bygeskyer

METAR: ESNZ 160420Z 28006KT CAVOK 04/02 Q1015

Tid: 06:55 (04:55 UTC)

Varsel

Denne rapporten ble laget for 1 time og 55 minutter siden, klokken 03:00 UTC
Varsel gyldig fra 16. klokken 04 UTC til 16. klokken 12 UTC
Vind 8 kt fra Vest-nordvest
Sikt 10 km eller mer
Spredte skyer i en høyde av 1500 ft
Sannsynlighet 40%
fra 16. klokken 04 UTC til 16. klokken 07 UTC
Brutte skyer i en høyde av 1400 ft

TAF: ESNZ 160300Z 1604/1612 30008KT 9999 SCT015 PROB40 1604/1607 BKN014

Værobservasjoner og værvarsel for over 4000 flyplasser (METAR- og TAF-rapporter).

Tilgjengelige stasjoner er representert av de røde og gule prikkene på kartet.

Hold musepekeren over prikken for å se navnet på stasjonen.

Klikk så for å se værobservasjoner og -varsler.

For å forandre kartet kan du klikke på den grønne knappen med svart kryss for å zoome inn, på den grønne knappen med strek for å zoome ut, eller på de grønne pilene for å se tilstøtende kart.


METAR-TAF: